Saint Louis, MO

6:25 PM CDT on April 21, 2015 (GMT -0500)
Soulard | | Change Station
CLOSE
Current Station
Personal Weather Station
Location: Saint Louis, MO
Elevation: 535 ft
Nearby Weather Stations

Elev 535 ft 38.61 °N, 90.21 °W | Updated 15 minutes ago

Partly Cloudy
Partly Cloudy
68.0 °F
Feels Like 68.0 °F
N
6.8
Wind Variable Wind from SSE

Today
High -- | Low -- °F
--% Chance of Precip.
Yesterday
High -- | Low -- °F
Precip. -- in
6:16 AM 7:43 PM
Waxing Crescent, 13% visible
Pressure 29.74 in
Visibility 10.0 miles
Clouds Few 6000 ft
Scattered Clouds 25000 ft
Dew Point 35 °F
Humidity 30%
Rainfall 0.00 in
Snow Depth Not available.
UV 1 out of 12
Pollen 11.00 out of 12
Air Quality Not available.
Flu Activity Local Activity
METAR KSTL 212251Z 27013G18KT 10SM FEW060 SCT250 20/01 A2975 RMK AO2 SLP071 T02000011

More Conditions Fewer Conditions

Pressure 29.74 in
Visibility 10.0 miles
Clouds Few 6000 ft
Scattered Clouds 25000 ft
Dew Point 35 °F
Humidity 30%
Rainfall 0.00 in
Snow Depth Not available.
UV 1 out of 12
Pollen 11.00 out of 12
Air Quality Not available.
Flu Activity Local Activity
METAR KSTL 212251Z 27013G18KT 10SM FEW060 SCT250 20/01 A2975 RMK AO2 SLP071 T02000011

More Conditions Fewer Conditions

10-Day Weather Forecast

Almanac

Astronomy

Apr. 21, 2015 Rise Set
Actual Time
Civil Twilight
Nautical Twilight
Astronomical Twilight
Moon
Length of Visible Light
Length of Day
Tomorrow will be .
, % of the Moon is Illuminated

Today's Extremes

State Highs State Lows

Community

WunderPhotos

Upload Photos

1,815,579 photos uploaded!

WunderBlogs® & News

Nearby

Air Quality

  Air Quality AQ Index Pollutant
Not available.

Snow Depth

Station Depth Elevation

Earthquake Activity

City Distance Mag. Time & Date
Minimum magnitude displayed is 2.5.

Coastal Water Temperatures

Place Temperature

Stations

Nearby Weather Stations

Station Location Temp. Windchill Dew Point Humidity Wind Precip. Elev Updated Type